x

9444090 - Port Angeles, Wa (ptaw1) Weather Station

4:36 - Sat 23rd Sep 2017 All times are PDT. -7 hours from GMT.

  • Wind
    13mph, 14mph gusts
  • Sea Temp 50°f
  • Ar Temp 55°f
  • Sea Pressure 1019.6mb
  • 9444090 - Port Angeles, Wa
  • 9444090 - Port Angeles, Wa

More Historic Weather Station data

Upgrade to MSW Pro to gain access to the past 30 days of data for over 8000 Wavebouys and Weather Stations around the globe.

Join

Comparision Forecast

View Surf forecast
   
Sáb 09/23 4:36 13 14 mph 1019.6mb 50f 55f
4:30 6 9 mph 1019.6mb 50f 55f
4:24 5 6 mph 1019.5mb 50f 56f
4:18 3 5 mph 1019.5mb 50f 56f
4:12 2 3 mph 1019.5mb 50f 56f
4:06 2 3 mph 1019.5mb 50f 56f
4:00 2 3 mph 1019.5mb 50f 56f
3:36 3 3 mph 1019.6mb 50f 57f
3:30 2 3 mph 1019.5mb 50f 57f
3:24 2 2 mph 1019.3mb 50f 58f
3:18 2 2 mph 1019.3mb 50f 58f
3:12 2 3 mph 1019.3mb 50f 58f
3:06 2 3 mph 1019.3mb 50f 58f
3:00 2 3 mph 1019.3mb 50f 57f
2:36 2 2 mph 1019.4mb 50f 58f
2:30 2 3 mph 1019.4mb 50f 57f
2:24 2 3 mph 1019.4mb 50f 57f
2:18 2 2 mph 1019.5mb 50f 57f
2:12 2 2 mph 1019.5mb 50f 57f
2:06 2 3 mph 1019.5mb 50f 58f
2:00 3 3 mph 1019.5mb 50f 57f
1:36 2 5 mph 1019.5mb 50f 56f
1:30 3 5 mph 1019.4mb 50f 56f
1:24 2 3 mph 1019.4mb 50f 56f
1:18 2 3 mph 1019.4mb 50f 56f
1:12 2 3 mph 1019.4mb 50f 56f
1:06 2 3 mph 1019.4mb 50f 56f
1:00 3 5 mph 1019.3mb 50f 55f
12:36 2 3 mph 1019.3mb 50f 55f
12:30 2 3 mph 1019.3mb 50f 56f
12:24 2 2 mph 1019.2mb 50f 56f
12:18 2 3 mph 1019.2mb 50f 57f
12:12 2 2 mph 1019.2mb 50f 56f
12:06 2 2 mph 1019.2mb 50f 57f
12:00 2 3 mph 1019.2mb 50f 58f
11:36 5 5 mph 1019.2mb 50f 57f
11:30 3 5 mph 1019.3mb 50f 57f
11:24 3 5 mph 1019.3mb 50f 56f
11:18 5 6 mph 1019.3mb 50f 56f
11:12 5 5 mph 1019.3mb 50f 56f
11:06 5 5 mph 1019.3mb 50f 55f
11:00 3 5 mph 1019.4mb 50f 55f
10:36 3 3 mph 1019.3mb 50f 56f
10:30 3 5 mph 1019.2mb 50f 56f
10:24 3 5 mph 1019.2mb 50f 55f
10:18 5 6 mph 1019.2mb 50f 54f
10:12 5 6 mph 1019.3mb 50f 55f
10:06 6 7 mph 1019.3mb 50f 55f
10:00 5 6 mph 1019.3mb 50f 55f
9:36 2 3 mph 1019mb 50f 58f
9:30 3 5 mph 1019mb 50f 55f
9:24 2 5 mph 1019mb 50f 56f
9:18 3 3 mph 1019mb 50f 60f
9:12 2 3 mph 1018.9mb 50f 59f
9:06 2 3 mph 1018.8mb 50f 56f
9:00 2 3 mph 1018.7mb 50f 56f
8:36 2 2 mph 1018.5mb 50f 56f
8:30  -  2 mph 1018.4mb 50f 56f
8:24 1 3 mph 1018.4mb 50f 56f
8:18 3 7 mph 1018.3mb 50f 56f
8:12 5 6 mph 1018.3mb 50f 56f
8:06 2 3 mph 1018.4mb 50f 56f
8:00 2 2 mph 1018.4mb 50f 56f
7:36 3 7 mph 1018.1mb 50f 53f
7:30 5 8 mph 1018.1mb 50f 52f
7:24 7 8 mph 1018mb 50f 52f
7:18 6 9 mph 1017.9mb 50f 52f
7:12 8 13 mph 1017.8mb 50f 53f
7:06 8 11 mph 1017.6mb 50f 53f
7:00 1 2 mph 1017.4mb 50f 53f
6:36  -  3 mph 1017.4mb 50f 53f
6:30 2 6 mph 1017.4mb 50f 53f
6:24 6 7 mph 1017.4mb 50f 52f
6:18 7 9 mph 1017.3mb 50f 52f
6:12 8 9 mph 1017.2mb 50f 52f
6:06 3 3 mph 1017.3mb 50f 52f
6:00 2 3 mph 1017.2mb 50f 52f
5:36 5 6 mph 1017mb 50f 52f
5:30 5 6 mph 1017mb 50f 52f
5:24 2 3 mph 1017mb 50f 52f
5:18  -  2 mph 1017mb 50f 52f
5:12 2 2 mph 1017.1mb 50f 52f
5:06 2 2 mph 1017.2mb 50f 53f
5:00 2 3 mph 1017.3mb 50f 53f
4:36 3 3 mph 1017.3mb 50f 53f
4:30 2 2 mph 1017.4mb 50f 53f
4:24 1 2 mph 1017.5mb 50f 53f
4:18 1 2 mph 1017.5mb 50f 53f
4:12  -  1 mph 1017.6mb 50f 54f
4:06 2 2 mph 1017.6mb 50f 54f
4:00 1 2 mph 1017.5mb 50f 53f
3:36 2 3 mph 1017.3mb 50f 54f
3:30 2 3 mph 1017.2mb 50f 54f
3:24  -  1 mph 1017.2mb 50f 55f
3:18 1 2 mph 1017.3mb 50f 55f
3:12 2 5 mph 1017.3mb 50f 55f
3:06 3 7 mph 1017.3mb 50f 55f
3:00 2 6 mph 1017.3mb 50f 55f
2:36 5 7 mph 1017.2mb 50f 56f
2:30 6 8 mph 1017.3mb 50f 56f
2:24 3 6 mph 1017.3mb 50f 56f
2:18 5 7 mph 1017.3mb 50f 56f
2:12 6 10 mph 1017.4mb 50f 56f
2:06 6 8 mph 1017.4mb 50f 56f
2:00 3 7 mph 1017.4mb 50f 56f
1:36 5 8 mph 1017.3mb 51f 56f
1:30 7 10 mph 1017.3mb 51f 56f
1:24 7 11 mph 1017.3mb 51f 56f
1:18 6 10 mph 1017.4mb 51f 56f
1:12 5 8 mph 1017.5mb 51f 56f
1:06 6 10 mph 1017.4mb 51f 56f
1:00 9 11 mph 1017.3mb 51f 56f
12:36 3 6 mph 1017.1mb 51f 55f
12:30 2 7 mph 1017.2mb 51f 55f
12:24 3 6 mph 1017.1mb 51f 55f
12:18 5 7 mph 1017.1mb 51f 55f
12:12 3 7 mph 1017.1mb 51f 54f
12:06 3 6 mph 1017mb 51f 53f
12:00 3 5 mph 1017mb 51f 54f
Sex 09/22 11:36 2 3 mph 1016.9mb 51f 53f
11:30 1 3 mph 1016.9mb 51f 53f
11:24 1 2 mph 1016.8mb 51f 53f
11:18  -  2 mph 1016.8mb 51f 53f
11:12 1 2 mph 1016.7mb 51f 53f
11:06 2 3 mph 1016.7mb 51f 53f
11:00 3 5 mph 1016.8mb 51f 53f
10:36 3 6 mph 1016.8mb 51f 53f
10:30 3 5 mph 1016.7mb 51f 53f
10:24 2 3 mph 1016.7mb 51f 53f
10:18 3 5 mph 1016.6mb 51f 53f
10:12 3 3 mph 1016.6mb 51f 53f
10:06 3 5 mph 1016.7mb 51f 53f
10:00 3 6 mph 1016.7mb 51f 53f
9:36 2 3 mph 1016.8mb 51f 53f
9:30 2 5 mph 1016.7mb 51f 54f
9:24 2 3 mph 1016.7mb 51f 54f
9:18 3 3 mph 1016.7mb 51f 54f
9:12 2 2 mph 1016.8mb 51f 54f
9:06 1 1 mph 1016.8mb 51f 54f
9:00 1 2 mph 1016.8mb 51f 54f
8:36 2 3 mph 1016.8mb 51f 53f
8:30 2 3 mph 1016.8mb 51f 53f
8:24 1 3 mph 1016.8mb 50f 53f
8:18 2 2 mph 1016.7mb 50f 53f
8:12 1 2 mph 1016.8mb 50f 54f
8:06 1 2 mph 1016.9mb 50f 54f
8:00  -  1 mph 1016.9mb 50f 54f
7:36 1 3 mph 1016.9mb 50f 55f
7:30 3 5 mph 1016.8mb 50f 54f
7:24 3 5 mph 1016.7mb 50f 54f
7:18  -  5 mph 1016.6mb 50f 55f
7:12 2 6 mph 1016.6mb 50f 55f
7:06 6 8 mph 1016.7mb 50f 55f
7:00 8 10 mph 1016.7mb 50f 54f
6:36 10 13 mph 1016.8mb 50f 54f
6:30 10 11 mph 1016.7mb 50f 54f
6:24 8 13 mph 1016.7mb 50f 54f
6:18 11 14 mph 1016.7mb 50f 53f
6:12 13 14 mph 1016.7mb 50f 53f
6:06 13 14 mph 1016.8mb 50f 54f
6:00 11 14 mph 1016.8mb 50f 55f
5:54 6 8 mph 1016.8mb 50f 55f
5:48 5 6 mph 1016.7mb 50f 55f
5:36 7 7 mph 1016.7mb 50f 55f
5:30 7 8 mph 1016.7mb 50f 54f
5:24 6 9 mph 1016.7mb 50f 54f
5:18 9 10 mph 1016.7mb 50f 54f
5:12 9 11 mph 1016.8mb 50f 54f
5:06 10 11 mph 1016.9mb 50f 54f
5:00 9 11 mph 1016.9mb 50f 54f
4:54 9 11 mph 1016.8mb 50f 55f
4:48 10 11 mph 1016.9mb 50f 55f
4:36 8 9 mph 1016.8mb 50f 56f
4:30 3 5 mph 1016.6mb 50f 57f
4:24 2 7 mph 1016.6mb 50f 57f
4:18 2 7 mph 1016.5mb 50f 60f
4:12  -  1 mph 1016.6mb 50f 61f
4:06  -  1 mph 1016.6mb 50f 62f
4:00  -  1 mph 1016.6mb 50f 61f
3:54  -  1 mph 1016.7mb 50f 60f
3:48  -  1 mph 1016.7mb 50f 61f
3:36 1 2 mph 1016.8mb 50f 61f
3:30 2 3 mph 1016.9mb 50f 62f
3:24 3 3 mph 1017mb 50f 62f
3:18 3 3 mph 1017.1mb 50f 62f
3:12 3 3 mph 1017.1mb 50f 62f
3:06 3 5 mph 1017.1mb 50f 63f
3:00 5 5 mph 1017mb 50f 62f
2:54 3 5 mph 1017mb 50f 62f
2:48 3 5 mph 1017.1mb 50f 62f
2:36 3 5 mph 1017.2mb 50f 61f
2:30 3 5 mph 1017.1mb 50f 61f
2:24 5 5 mph 1017.1mb 50f 60f
2:18 5 5 mph 1017.2mb 50f 60f
2:12 5 5 mph 1017.1mb 50f 61f
2:06 3 5 mph 1017.2mb 50f 61f
2:00 5 5 mph 1017.2mb 50f 60f
1:54 3 5 mph 1017.3mb 50f 60f
1:48 5 5 mph 1017.4mb 50f 60f
1:36 6 7 mph 1017.4mb 50f 61f
1:30 6 7 mph 1017.5mb 50f 60f
1:24 6 6 mph 1017.6mb 50f 61f
1:18 6 6 mph 1017.6mb 50f 61f
1:12 6 7 mph 1017.7mb 50f 60f
1:06 6 6 mph 1017.7mb 50f 61f
1:00 6 7 mph 1017.7mb 50f 59f
12:54 6 7 mph 1017.7mb 50f 61f
12:48 6 7 mph 1017.7mb 50f 61f
12:36 6 6 mph 1017.7mb 50f 61f
12:30 3 3 mph 1017.7mb 50f 62f
12:24 3 3 mph 1017.7mb 50f 62f
12:18 3 3 mph 1017.7mb 50f 61f
12:12 5 5 mph 1017.7mb 50f 62f
12:06 3 5 mph 1017.7mb 50f 61f
12:00 2 3 mph 1017.8mb 50f 61f
11:54 3 3 mph 1017.9mb 50f 60f
11:48 2 3 mph 1018mb 50f 59f
11:36  -  1 mph 1018mb 50f 62f
11:30 1 2 mph 1018mb 50f 60f
11:24 1 2 mph 1018.1mb 50f 60f
11:18 2 2 mph 1018.2mb 50f 59f
11:12 1 2 mph 1018.2mb 50f 59f
11:06 1 2 mph 1018.1mb 50f 57f
11:00 2 2 mph 1018.1mb 50f 56f
10:54 1 2 mph 1018.1mb 50f 57f
10:48 2 3 mph 1018.1mb 50f 61f
10:36 1 2 mph 1018.1mb 50f 59f
10:30  -  2 mph 1018.1mb 50f 58f
10:24  -  1 mph 1018.2mb 50f 56f
10:18  -  2 mph 1018.2mb 50f 56f
10:12  -  1 mph 1018.3mb 50f 56f
10:06  -  2 mph 1018.4mb 50f 56f
10:00 1 1 mph 1018.5mb 50f 54f
9:54 1 1 mph 1018.5mb 50f 55f
9:48 2 2 mph 1018.5mb 50f 55f
9:36  -  2 mph 1018.4mb 50f 54f
9:30 1 3 mph 1018.3mb 50f 54f
9:24 2 3 mph 1018.3mb 50f 53f
9:18  -  3 mph 1018.2mb 50f 53f
9:12 2 2 mph 1018.2mb 50f 53f
9:06  -  3 mph 1018.1mb 50f 54f
9:00 2 5 mph 1018.1mb 50f 55f
8:54 1 6 mph 1018mb 50f 55f
8:48 2 2 mph 1018mb 50f 55f
8:36 2 3 mph 1017.9mb 50f 53f
8:30 2 3 mph 1018mb 50f 53f
8:24 1 2 mph 1017.9mb 50f 53f
8:18 2 3 mph 1017.8mb 50f 53f
8:12 3 5 mph 1017.8mb 50f 53f
8:06 2 5 mph 1017.7mb 50f 53f
8:00 3 5 mph 1017.7mb 50f 53f
7:54 3 5 mph 1017.7mb 50f 53f
7:48 3 5 mph 1017.7mb 50f 52f
7:36 3 5 mph 1017.9mb 50f 52f
7:30 5 6 mph 1017.9mb 50f 52f
7:24 5 5 mph 1017.9mb 50f 51f
7:18 5 6 mph 1017.9mb 50f 51f
7:12 5 6 mph 1017.9mb 50f 51f
7:06 3 5 mph 1017.9mb 50f 51f
7:00 5 6 mph 1017.9mb 50f 51f
6:54 2 3 mph 1017.8mb 50f 51f
6:48 3 5 mph 1017.8mb 50f 51f
6:36 2 2 mph 1017.6mb 50f 51f
6:30 2 2 mph 1017.7mb 50f 50f
6:24  -  2 mph 1017.5mb 50f 51f
6:18 2 2 mph 1017.5mb 50f 51f
6:12  -  3 mph 1017.4mb 50f 51f
6:06 2 3 mph 1017.4mb 50f 51f
6:00 2 3 mph 1017.3mb 50f 51f
5:54 2 2 mph 1017.2mb 50f 51f
5:48 2 2 mph 1017.2mb 50f 51f
5:36 1 2 mph 1017.2mb 50f 51f
5:30 3 5 mph 1017.1mb 50f 51f
5:24 2 3 mph 1017.1mb 50f 50f
5:18 3 3 mph 1017.2mb 50f 50f
5:12 2 3 mph 1017.2mb 50f 50f
5:06 2 2 mph 1017.3mb 50f 51f
5:00 2 3 mph 1017.3mb 50f 51f
4:54 3 5 mph 1017.3mb 50f 51f
4:48 5 5 mph 1017.2mb 50f 51f
4:36 3 6 mph 1017.1mb 50f 50f
4:30 3 3 mph 1017.1mb 50f 50f
4:24 2 3 mph 1017.1mb 50f 50f
4:18 2 2 mph 1017mb 50f 50f
4:12 2 2 mph 1016.9mb 50f 50f
4:06 2 2 mph 1016.9mb 50f 50f
4:00 1 3 mph 1016.9mb 50f 50f
3:54 2 2 mph 1016.8mb 50f 50f
3:48 2 2 mph 1016.7mb 50f 50f
3:36 2 3 mph 1016.6mb 50f 51f
3:30  -  2 mph 1016.6mb 50f 51f
3:24  -  2 mph 1016.6mb 50f 52f
3:18 2 3 mph 1016.6mb 50f 51f
3:12 2 3 mph 1016.4mb 50f 51f
3:06 3 3 mph 1016.4mb 50f 51f
3:00 2 3 mph 1016.5mb 50f 52f
2:54 1 5 mph 1016.5mb 50f 53f
2:48  -  5 mph 1016.5mb 50f 52f
2:36  -  3 mph 1016.5mb 50f 53f
2:30 1 5 mph 1016.5mb 50f 53f
2:24 3 7 mph 1016.6mb 50f 54f
2:18 1 5 mph 1016.6mb 50f 55f
2:12 5 6 mph 1016.5mb 50f 56f
2:06 6 10 mph 1016.4mb 50f 57f
2:00 7 13 mph 1016.3mb 50f 57f
1:54 8 13 mph 1016.3mb 50f 57f
1:48 6 10 mph 1016.2mb 50f 57f
1:36 1 3 mph 1016.3mb 50f 54f
1:30 3 3 mph 1016.4mb 50f 54f
1:24 2 3 mph 1016.4mb 50f 54f
1:18 2 5 mph 1016.4mb 50f 54f
1:12 1 2 mph 1016.3mb 50f 54f
1:06  -  1 mph 1016.3mb 50f 54f
1:00  -  1 mph 1016.3mb 51f 54f
12:54  -  1 mph 1016.3mb 51f 54f
12:48 1 2 mph 1016.3mb 51f 54f
12:36 1 3 mph 1016.3mb 51f 55f
12:30 3 5 mph 1016.4mb 51f 55f
12:24 5 6 mph 1016.4mb 51f 55f
12:18 5 6 mph 1016.4mb 51f 55f
12:12 3 5 mph 1016.4mb 51f 56f
12:06 3 6 mph 1016.4mb 51f 56f
12:00 2 6 mph 1016.4mb 51f 55f
Qui 09/21 11:54 5 6 mph 1016.4mb 51f 55f
11:48 1 6 mph 1016.4mb 51f 55f
11:36 3 5 mph 1016.3mb 51f 55f
11:30 3 6 mph 1016.2mb 51f 55f
11:24 5 7 mph 1016.3mb 51f 54f
11:18 3 6 mph 1016.3mb 51f 55f
11:12 2 3 mph 1016.2mb 51f 56f
11:06 1 3 mph 1016.1mb 51f 56f
11:00 3 5 mph 1016mb 51f 56f
10:54 3 5 mph 1015.9mb 51f 56f
10:48 2 3 mph 1016mb 51f 56f
10:36 1 2 mph 1016.1mb 51f 56f
10:30  -  3 mph 1016mb 51f 56f
10:24 1 3 mph 1016.1mb 51f 57f
10:18 2 6 mph 1016.1mb 51f 57f
10:12 5 9 mph 1016.1mb 51f 57f
10:06 7 10 mph 1016.1mb 51f 57f
10:00 7 9 mph 1016.1mb 51f 57f
9:54 6 9 mph 1016.1mb 51f 57f
9:36 3 8 mph 1016.2mb 51f 56f
9:30 6 9 mph 1016.1mb 51f 56f
9:24 5 6 mph 1016.1mb 52f 55f
9:18 3 6 mph 1016.1mb 52f 55f
9:12 3 6 mph 1016.1mb 52f 55f
9:06 6 8 mph 1016.1mb 52f 55f
9:00 8 11 mph 1016mb 52f 55f
8:54 8 10 mph 1016mb 52f 55f
8:36 7 9 mph 1015.7mb 52f 55f
8:30 10 14 mph 1015.6mb 51f 54f
8:24 11 14 mph 1015.6mb 51f 54f
8:18 11 13 mph 1015.6mb 51f 54f
8:12 7 9 mph 1015.5mb 51f 54f
8:06 6 8 mph 1015.5mb 51f 54f
8:00 5 7 mph 1015.3mb 51f 55f
7:54 5 7 mph 1015.3mb 51f 56f
7:48 3 5 mph 1015.3mb 51f 57f
7:36 2 2 mph 1015.2mb 50f 58f
7:30 1 2 mph 1015.2mb 50f 58f
7:24  -  1 mph 1015.2mb 50f 58f
7:18  -  2 mph 1015.2mb 50f 57f
7:12  -  1 mph 1015.2mb 50f 57f
7:06  -  1 mph 1015.2mb 50f 58f
7:00  -  2 mph 1015.2mb 50f 59f
6:54 2 2 mph 1015.1mb 50f 59f
6:36 1 2 mph 1015mb 50f 60f
6:30  -  2 mph 1015mb 50f 59f
6:24  -  2 mph 1014.9mb 50f 59f
6:18 2 2 mph 1014.9mb 50f 61f
6:12 1 2 mph 1014.8mb 50f 60f
6:06 2 3 mph 1014.8mb 50f 59f
6:00 2 2 mph 1014.8mb 50f 59f
5:54 1 2 mph 1014.7mb 50f 59f
5:36 2 5 mph 1014.7mb 50f 58f
5:30 5 6 mph 1014.7mb 50f 61f
5:24 6 6 mph 1014.7mb 50f 60f
5:18 5 6 mph 1014.8mb 50f 59f
5:12 5 6 mph 1014.8mb 50f 58f
5:06 6 7 mph 1014.8mb 50f 58f
5:00 6 8 mph 1014.8mb 50f 58f
4:54 6 7 mph 1014.7mb 50f 58f
4:48 6 7 mph 1014.7mb 50f 58f
4:36 7 8 mph 1014.6mb 50f 58f
4:30 6 6 mph 1014.7mb 50f 59f
4:24 5 5 mph 1014.7mb 50f 59f
4:18 3 5 mph 1014.7mb 50f 58f
4:12 5 5 mph 1014.7mb 50f 59f
4:06 3 5 mph 1014.7mb 50f 59f
4:00 1 2 mph 1014.8mb 50f 60f
3:54 2 6 mph 1014.8mb 50f 60f
3:48 5 7 mph 1014.8mb 50f 62f
3:36 3 3 mph 1014.7mb 50f 60f
3:30 2 3 mph 1014.7mb 50f 60f
3:24 3 6 mph 1014.7mb 50f 58f
3:18 5 5 mph 1014.7mb 50f 58f
3:12 3 5 mph 1014.7mb 50f 57f
3:06 3 5 mph 1014.7mb 50f 57f
3:00 3 5 mph 1014.7mb 50f 59f
2:54 1 2 mph 1014.7mb 50f 60f
2:48 2 3 mph 1014.7mb 50f 59f
2:36 2 3 mph 1014.7mb 50f 57f
2:30 2 3 mph 1014.7mb 50f 58f
2:24 3 3 mph 1014.6mb 50f 56f
2:18 3 5 mph 1014.6mb 50f 56f
2:12 2 3 mph 1014.6mb 50f 57f
2:06 2 5 mph 1014.6mb 50f 56f
2:00 5 6 mph 1014.6mb 50f 55f
1:54 5 6 mph 1014.5mb 50f 56f
1:48 3 5 mph 1014.5mb 50f 56f
1:36 5 6 mph 1014.6mb 50f 56f
1:30 5 6 mph 1014.6mb 50f 56f
1:24 5 6 mph 1014.6mb 50f 55f
1:18 5 6 mph 1014.5mb 50f 55f
1:12 5 6 mph 1014.5mb 50f 55f
1:06 6 6 mph 1014.4mb 50f 55f
1:00 5 5 mph 1014.4mb 50f 55f
12:54 3 5 mph 1014.4mb 50f 55f
12:48 3 5 mph 1014.4mb 50f 55f
12:36 5 6 mph 1014.4mb 50f 55f
12:30 3 6 mph 1014.3mb 50f 56f
12:24 5 6 mph 1014.3mb 50f 55f
12:18 5 6 mph 1014.2mb 50f 54f
12:12 5 6 mph 1014.2mb 50f 54f
12:06 5 6 mph 1014.3mb 50f 55f
12:00 3 5 mph 1014.3mb 50f 56f
11:54 2 3 mph 1014.3mb 50f 56f
11:48 2 5 mph 1014.3mb 50f 55f
11:36 1 5 mph 1014.3mb 50f 57f
11:30 2 3 mph 1014.4mb 50f 57f
11:24 3 3 mph 1014.3mb 50f 56f
11:18 1 2 mph 1014.3mb 50f 58f
11:12 2 3 mph 1014.3mb 50f 56f
11:06 2 3 mph 1014.3mb 50f 57f
11:00 2 5 mph 1014.3mb 50f 56f
10:54 3 3 mph 1014.3mb 50f 56f
10:48 2 5 mph 1014.3mb 50f 55f
10:36 3 5 mph 1014.3mb 50f 55f
10:30 3 5 mph 1014.3mb 50f 55f
10:24 3 5 mph 1014.2mb 50f 55f
10:18 5 6 mph 1014.2mb 50f 55f
10:12 3 5 mph 1014.2mb 50f 55f
10:06 3 6 mph 1014.2mb 50f 55f
10:00 6 8 mph 1014.1mb 50f 56f
9:54 7 8 mph 1014mb 50f 55f
9:48 8 9 mph 1013.9mb 50f 55f
9:36 5 6 mph 1013.6mb 50f 54f
9:30 3 5 mph 1013.6mb 50f 55f
9:24 2 5 mph 1013.5mb 50f 56f
9:18 3 5 mph 1013.5mb 50f 57f
9:12  -  1 mph 1013.5mb 50f 58f
9:06  -  1 mph 1013.4mb 50f 56f
9:00  -  2 mph 1013.4mb 50f 55f
8:54 2 3 mph 1013.3mb 50f 53f
8:48 3 5 mph 1013.3mb 50f 51f
8:36 2 3 mph 1013.2mb 50f 49f
8:30 2 2 mph 1013.3mb 50f 49f
8:24 2 3 mph 1013.2mb 50f 49f
8:18 2 3 mph 1013.1mb 50f 49f
8:12 3 5 mph 1013mb 50f 49f
8:06 3 5 mph 1012.9mb 50f 48f
8:00 3 5 mph 1012.9mb 50f 48f
7:54 3 3 mph 1012.9mb 50f 49f
7:48 2 3 mph 1012.9mb 50f 49f
7:36 2 3 mph 1012.8mb 50f 49f
7:30 2 3 mph 1012.8mb 49f 49f
7:24 2 2 mph 1012.7mb 49f 49f
7:18 2 3 mph 1012.6mb 49f 49f
7:12 3 3 mph 1012.6mb 50f 49f
7:06 2 5 mph 1012.6mb 50f 49f
7:00 5 6 mph 1012.5mb 50f 49f
6:54 3 5 mph 1012.5mb 50f 49f
6:48 3 5 mph 1012.4mb 50f 49f
6:36 3 5 mph 1012.4mb 50f 49f
6:30 3 5 mph 1012.4mb 50f 49f
6:24 3 5 mph 1012.4mb 50f 49f
6:18 3 6 mph 1012.3mb 50f 48f
6:12 6 7 mph 1012.3mb 50f 48f
6:06 3 5 mph 1012.3mb 50f 48f
6:00 2 3 mph 1012.3mb 50f 48f
5:54 2 3 mph 1012.3mb 50f 47f
5:48 3 5 mph 1012.2mb 50f 47f
5:36 3 3 mph 1012mb 50f 47f
5:30 2 6 mph 1011.9mb 50f 47f
5:24 3 6 mph 1011.9mb 50f 48f
5:18 3 6 mph 1011.7mb 50f 48f
5:12 3 5 mph 1011.7mb 50f 48f
5:06 2 3 mph 1011.7mb 50f 48f
5:00 3 6 mph 1011.6mb 50f 47f
4:54 5 6 mph 1011.5mb 50f 47f
4:48 3 6 mph 1011.5mb 50f 47f
4:36 1 2 mph 1011.5mb 50f 47f
4:30 1 3 mph 1011.4mb 50f 47f
4:24 5 6 mph 1011.4mb 50f 47f
4:18 5 6 mph 1011.4mb 50f 47f
4:12 2 3 mph 1011.4mb 50f 47f
4:06 3 3 mph 1011.4mb 50f 47f
4:00 5 5 mph 1011.4mb 50f 47f
3:54 3 5 mph 1011.4mb 50f 47f
3:48 2 3 mph 1011.3mb 50f 47f
3:36  -  2 mph 1011.1mb 50f 47f
3:30 2 3 mph 1011mb 50f 47f
3:24 3 6 mph 1011mb 50f 47f
3:18 3 6 mph 1011mb 50f 47f
3:12 3 5 mph 1010.9mb 50f 47f
3:06 2 2 mph 1010.8mb 50f 47f
3:00 1 2 mph 1010.7mb 50f 48f
2:54 2 2 mph 1010.8mb 50f 48f
2:48 2 5 mph 1010.7mb 50f 47f
2:36 6 8 mph 1010.5mb 50f 46f
2:30 5 6 mph 1010.5mb 50f 47f
2:24 3 3 mph 1010.5mb 50f 47f
2:18 2 5 mph 1010.5mb 50f 47f
2:12 3 5 mph 1010.5mb 50f 47f
2:06 3 3 mph 1010.4mb 50f 48f
2:00  -  5 mph 1010.3mb 50f 48f
1:54 1 3 mph 1010.3mb 50f 48f
1:48  -  6 mph 1010.2mb 50f 48f
1:36 6 7 mph 1010mb 50f 48f
1:30 6 7 mph 1010mb 50f 47f
1:24 6 7 mph 1010mb 50f 47f
1:18 6 8 mph 1010mb 50f 47f
1:12 7 7 mph 1010.1mb 50f 47f
1:06 5 7 mph 1010.1mb 50f 47f
1:00 5 7 mph 1010.1mb 50f 46f
12:54 5 6 mph 1010mb 50f 46f
12:48 2 3 mph 1010mb 50f 46f
12:36 2 5 mph 1009.9mb 50f 46f
12:30 3 6 mph 1009.9mb 50f 47f
12:24 5 5 mph 1009.8mb 50f 47f
12:18 2 2 mph 1009.8mb 50f 47f
12:12 2 3 mph 1009.7mb 50f 47f
12:06 1 2 mph 1009.7mb 51f 47f
12:00 2 3 mph 1009.7mb 51f 48f
Qua 09/20 11:54 1 2 mph 1009.6mb 51f 48f
11:36 1 3 mph 1009.6mb 51f 48f
11:30 5 5 mph 1009.6mb 51f 48f
11:24  -  3 mph 1009.7mb 51f 49f
11:18 3 5 mph 1009.7mb 51f 49f
11:12 1 3 mph 1009.7mb 51f 50f
11:06 2 2 mph 1009.7mb 51f 50f
11:00 3 10 mph 1009.7mb 51f 50f
10:54 8 10 mph 1009.7mb 51f 50f
10:48 7 10 mph 1009.7mb 51f 50f
10:36 6 8 mph 1009.7mb 51f 50f
10:30 7 8 mph 1009.7mb 51f 50f
10:24 6 8 mph 1009.7mb 51f 50f
10:18 6 7 mph 1009.6mb 51f 50f
10:12 7 9 mph 1009.6mb 51f 49f
10:06 6 7 mph 1009.6mb 51f 49f
10:00 5 6 mph 1009.6mb 51f 49f
9:54 6 7 mph 1009.6mb 51f 49f
9:48 3 5 mph 1009.5mb 51f 49f
9:36 5 6 mph 1009.4mb 51f 49f
9:30 3 5 mph 1009.3mb 51f 49f
9:24 2 3 mph 1009.2mb 51f 49f
9:18 1 2 mph 1009.1mb 51f 49f
9:12  -  5 mph 1009mb 51f 49f
9:06 3 5 mph 1008.9mb 51f 50f
9:00  -  2 mph 1008.8mb 51f 50f
8:54 2 5 mph 1008.7mb 51f 49f
8:36 3 5 mph 1008.8mb 50f 50f
8:30 1 3 mph 1008.8mb 50f 50f
8:24 5 5 mph 1008.8mb 50f 51f
8:18 5 6 mph 1008.8mb 50f 51f
8:12 3 5 mph 1008.8mb 50f 51f
8:06 5 6 mph 1008.7mb 50f 52f
8:00 5 6 mph 1008.7mb 50f 52f
7:54 2 6 mph 1008.6mb 50f 52f
7:36 3 5 mph 1008.6mb 50f 53f
7:30 2 5 mph 1008.5mb 50f 53f
7:24 3 6 mph 1008.4mb 50f 54f
7:18 5 8 mph 1008.4mb 50f 54f
7:12 3 6 mph 1008.4mb 50f 55f
7:06 5 7 mph 1008.3mb 50f 55f
7:00 6 9 mph 1008.2mb 50f 54f
6:54 8 11 mph 1008.2mb 50f 54f
6:48 7 9 mph 1008.2mb 50f 54f
6:36 8 10 mph 1008.3mb 50f 53f
6:30 8 10 mph 1008.2mb 50f 53f
6:24 8 11 mph 1008.1mb 50f 53f
6:18 7 9 mph 1008.1mb 50f 54f
6:12 7 8 mph 1008.1mb 50f 54f
6:06 8 9 mph 1008mb 50f 54f
6:00 8 9 mph 1007.9mb 50f 55f
5:54 7 8 mph 1007.8mb 50f 55f
5:48 6 7 mph 1007.7mb 50f 55f
5:36 3 5 mph 1007.6mb 50f 53f
5:30 3 5 mph 1007.7mb 50f 53f
5:24 3 7 mph 1007.7mb 50f 53f
5:18 6 6 mph 1007.6mb 50f 55f
5:12 3 6 mph 1007.6mb 50f 56f
5:06 1 2 mph 1007.5mb 50f 56f
5:00 2 5 mph 1007.4mb 50f 56f
4:54 1 2 mph 1007.4mb 50f 56f
4:48 1 3 mph 1007.5mb 51f 55f
4:36 2 3 mph 1007.5mb 51f 56f
4:30 3 3 mph 1007.4mb 51f 55f
4:24 2 5 mph 1007.4mb 51f 53f
4:18 5 6 mph 1007.4mb 51f 53f
4:12 3 6 mph 1007.4mb 51f 53f
4:06 5 7 mph 1007.4mb 51f 53f
4:00 6 7 mph 1007.4mb 51f 53f
3:54 6 7 mph 1007.4mb 51f 52f
3:48 6 8 mph 1007.3mb 51f 53f
3:36 6 7 mph 1007.2mb 51f 52f
3:30 6 7 mph 1007.2mb 51f 53f
3:24 5 6 mph 1007.1mb 51f 53f
3:18 5 6 mph 1007.1mb 51f 54f
3:12 5 7 mph 1007.1mb 51f 54f
3:06 5 6 mph 1007mb 50f 53f
3:00 6 7 mph 1007mb 50f 53f
2:54 3 6 mph 1007mb 50f 54f
2:48 3 5 mph 1006.9mb 50f 53f
2:36 3 5 mph 1007mb 50f 52f
2:30 3 6 mph 1007mb 50f 52f
2:24 5 8 mph 1007.1mb 50f 51f
2:18 8 10 mph 1007.1mb 50f 52f
2:12 8 10 mph 1007mb 50f 52f
2:06 5 7 mph 1006.9mb 50f 52f
2:00 5 6 mph 1006.9mb 50f 52f
1:54 7 8 mph 1007mb 50f 52f
1:48 8 9 mph 1006.9mb 50f 52f
1:36 9 10 mph 1006.9mb 50f 52f
1:30 7 9 mph 1006.9mb 50f 52f
1:24 6 8 mph 1006.8mb 50f 54f
1:18 6 7 mph 1006.8mb 50f 57f
1:12 3 3 mph 1006.7mb 50f 60f
1:06 2 3 mph 1006.8mb 50f 60f
1:00 2 3 mph 1006.7mb 50f 59f
12:54 3 5 mph 1006.6mb 50f 58f
12:48 3 5 mph 1006.6mb 50f 56f
12:36 3 5 mph 1006.6mb 50f 58f
12:30 3 5 mph 1006.5mb 50f 57f
12:24 3 5 mph 1006.5mb 50f 58f
12:18 3 5 mph 1006.5mb 50f 56f
12:12 3 5 mph 1006.5mb 50f 55f
12:06 3 5 mph 1006.4mb 50f 56f
12:00 3 3 mph 1006.4mb 50f 57f
11:54 2 3 mph 1006.3mb 50f 57f
11:48 3 3 mph 1006.3mb 50f 57f
11:36 3 3 mph 1006.3mb 50f 56f
11:30 2 3 mph 1006.2mb 50f 56f
11:24 3 3 mph 1006.1mb 50f 56f
11:18 2 5 mph 1006.1mb 50f 55f
11:12 5 5 mph 1006mb 50f 55f
11:06 2 3 mph 1005.9mb 50f 54f
11:00 2 5 mph 1005.8mb 50f 54f
10:54 2 5 mph 1005.8mb 50f 53f
10:48 2 3 mph 1005.8mb 50f 53f
10:36  -  2 mph 1005.8mb 50f 54f
10:30 2 3 mph 1005.7mb 50f 54f
10:24 2 2 mph 1005.7mb 50f 54f
10:18  -  1 mph 1005.6mb 50f 54f
10:12  -  1 mph 1005.6mb 50f 54f
10:06  -  2 mph 1005.6mb 50f 53f
10:00 1 2 mph 1005.5mb 50f 53f
9:54  -  1 mph 1005.5mb 50f 52f
9:48  -  2 mph 1005.4mb 50f 52f
9:36 2 3 mph 1005.3mb 50f 52f
9:30  -  1 mph 1005.3mb 50f 51f
9:24  -  3 mph 1005.2mb 50f 51f
9:18 2 5 mph 1005.1mb 50f 51f
9:12 2 5 mph 1005.1mb 50f 51f
9:06 3 5 mph 1005.1mb 50f 51f
9:00 5 6 mph 1005mb 50f 50f
8:54 5 6 mph 1005mb 50f 50f
8:48 5 8 mph 1004.9mb 50f 50f
8:36 2 3 mph 1004.8mb 50f 50f
8:30 3 5 mph 1004.8mb 50f 51f
8:24 2 5 mph 1004.7mb 50f 51f
8:18 2 5 mph 1004.7mb 50f 51f
8:12 1 3 mph 1004.8mb 50f 50f
8:06 2 5 mph 1004.8mb 50f 50f
8:00 3 5 mph 1004.7mb 50f 50f
7:54 2 5 mph 1004.7mb 50f 50f
7:48 3 5 mph 1004.7mb 50f 50f
7:36 3 5 mph 1004.6mb 50f 49f
7:30 2 5 mph 1004.6mb 50f 49f
7:24 1 5 mph 1004.6mb 50f 50f
7:18 3 7 mph 1004.5mb 50f 50f
7:12 2 5 mph 1004.5mb 50f 49f
7:06 2 6 mph 1004.4mb 50f 49f
7:00 3 6 mph 1004.4mb 50f 49f
6:54 3 7 mph 1004.3mb 50f 49f
6:48 3 6 mph 1004.3mb 50f 49f
6:36 5 8 mph 1004.2mb 50f 49f
6:30 2 6 mph 1004.2mb 50f 49f
6:24 3 7 mph 1004.2mb 50f 49f
6:18 3 7 mph 1004.1mb 50f 49f
6:12 6 9 mph 1004.1mb 50f 49f
6:06 6 7 mph 1004.1mb 50f 49f
6:00 5 7 mph 1004mb 50f 49f
5:54 2 5 mph 1003.9mb 50f 48f
5:48 2 5 mph 1003.9mb 50f 48f
5:36  -  2 mph 1003.8mb 50f 48f
5:30 2 3 mph 1003.8mb 50f 48f
5:24 2 3 mph 1003.7mb 50f 48f
5:18 2 3 mph 1003.7mb 50f 48f
5:12  -  2 mph 1003.7mb 50f 48f
5:06 1 2 mph 1003.6mb 50f 48f
5:00 1 3 mph 1003.6mb 50f 48f
4:54 3 3 mph 1003.7mb 50f 48f
4:48 3 5 mph 1003.7mb 50f 47f
4:36 2 3 mph 1003.7mb 50f 47f
4:30 2 3 mph 1003.7mb 50f 47f
4:24 3 6 mph 1003.7mb 50f 47f
4:18 5 6 mph 1003.7mb 50f 47f
4:12 5 5 mph 1003.6mb 50f 47f
4:06 3 5 mph 1003.6mb 50f 47f
4:00  -  2 mph 1003.6mb 50f 48f
3:54 1 3 mph 1003.6mb 50f 47f
3:48 1 6 mph 1003.6mb 50f 47f
3:36 6 8 mph 1003.6mb 50f 47f
3:30 5 7 mph 1003.7mb 50f 47f
3:24 7 8 mph 1003.7mb 50f 47f
3:18 6 7 mph 1003.8mb 50f 47f
3:12 3 6 mph 1004mb 50f 47f
3:06 3 5 mph 1004mb 50f 47f
3:00 2 7 mph 1004.1mb 50f 47f
2:54 6 8 mph 1004.1mb 50f 47f
2:48 6 7 mph 1004.1mb 50f 47f
2:36 6 8 mph 1004.2mb 50f 47f
2:30 7 9 mph 1004.1mb 50f 47f
2:24 5 7 mph 1004mb 50f 47f
2:18 5 6 mph 1004mb 50f 47f
2:12 2 3 mph 1003.9mb 50f 48f
2:06 2 5 mph 1004mb 50f 48f
2:00 3 5 mph 1004mb 50f 48f
1:54 2 5 mph 1004.2mb 50f 49f
1:48 2 6 mph 1004.2mb 50f 49f
1:36 3 7 mph 1004.3mb 50f 49f
1:30 6 7 mph 1004.5mb 50f 49f